TimeEDT,TemperatureF,Dew PointF,Humidity,Sea Level PressureIn,VisibilityMPH,Wind Direction,Wind SpeedMPH,Gust SpeedMPH,PrecipitationIn,Events,Conditions,WindDirDegrees,DateUTC
12:15 AM,24.8,23.0,93,29.73,10.0,West,18.4,25.3,N/A,,Overcast,280,2013-03-21 04:15:00
12:35 AM,24.8,23.0,93,29.71,3.0,WNW,19.6,26.5,N/A,Snow,Light Snow,290,2013-03-21 04:35:00
12:55 AM,23.0,23.0,100,29.71,10.0,WNW,17.3,-,N/A,,Overcast,290,2013-03-21 04:55:00
1:35 AM,23.0,21.2,93,29.70,7.0,WNW,13.8,-,N/A,Snow,Light Snow,290,2013-03-21 05:35:00
2:15 AM,21.2,19.4,93,29.69,10.0,NW,12.7,18.4,N/A,,Overcast,310,2013-03-21 06:15:00
2:35 AM,21.2,17.6,86,29.69,10.0,NW,15.0,-,N/A,,Overcast,310,2013-03-21 06:35:00
2:55 AM,19.4,15.8,86,29.68,10.0,NW,9.2,16.1,N/A,,Mostly Cloudy,320,2013-03-21 06:55:00
3:15 AM,19.4,14.0,80,29.68,10.0,NW,13.8,18.4,N/A,,Scattered Clouds,310,2013-03-21 07:15:00
3:35 AM,17.6,14.0,86,29.67,10.0,NW,16.1,19.6,N/A,,Mostly Cloudy,310,2013-03-21 07:35:00
3:55 AM,17.6,14.0,86,29.66,10.0,NW,11.5,17.3,N/A,,Scattered Clouds,310,2013-03-21 07:55:00
4:15 AM,17.6,12.2,79,29.65,10.0,NW,9.2,17.3,N/A,,Mostly Cloudy,310,2013-03-21 08:15:00
4:35 AM,17.6,14.0,86,29.65,10.0,WNW,8.1,17.3,N/A,,Mostly Cloudy,300,2013-03-21 08:35:00
4:55 AM,17.6,12.2,79,29.65,10.0,WNW,9.2,17.3,N/A,,Overcast,300,2013-03-21 08:55:00
5:15 AM,17.6,12.2,79,29.65,10.0,WNW,11.5,19.6,N/A,,Overcast,300,2013-03-21 09:15:00
5:35 AM,15.8,12.2,86,29.64,10.0,WNW,10.4,18.4,N/A,,Mostly Cloudy,300,2013-03-21 09:35:00
5:55 AM,15.8,10.4,79,29.64,10.0,WNW,16.1,24.2,N/A,,Scattered Clouds,300,2013-03-21 09:55:00
6:15 AM,15.8,8.6,73,29.63,10.0,WNW,13.8,28.8,N/A,,Scattered Clouds,300,2013-03-21 10:15:00
6:35 AM,14.0,8.6,79,29.63,10.0,WNW,16.1,23.0,N/A,,Scattered Clouds,300,2013-03-21 10:35:00
6:55 AM,14.0,8.6,79,29.64,10.0,WNW,12.7,24.2,N/A,,Clear,300,2013-03-21 10:55:00
7:15 AM,14.0,8.6,79,29.65,10.0,NW,9.2,20.7,N/A,,Scattered Clouds,310,2013-03-21 11:15:00
7:35 AM,12.2,8.6,85,29.65,10.0,NW,11.5,17.3,N/A,,Mostly Cloudy,310,2013-03-21 11:35:00
7:55 AM,12.2,6.8,79,29.65,10.0,NW,13.8,19.6,N/A,,Overcast,320,2013-03-21 11:55:00
8:15 AM,12.2,6.8,79,29.66,10.0,WNW,10.4,-,N/A,,Mostly Cloudy,300,2013-03-21 12:15:00
8:55 AM,12.2,3.2,67,29.65,10.0,WNW,13.8,24.2,N/A,,Scattered Clouds,300,2013-03-21 12:55:00
9:15 AM,12.2,3.2,67,29.66,10.0,WNW,19.6,27.6,N/A,,Clear,300,2013-03-21 13:15:00
9:35 AM,14.0,3.2,62,29.66,10.0,WNW,11.5,26.5,N/A,,Scattered Clouds,300,2013-03-21 13:35:00
9:55 AM,14.0,3.2,62,29.67,10.0,WNW,8.1,21.9,N/A,,Mostly Cloudy,290,2013-03-21 13:55:00
10:15 AM,14.0,3.2,62,29.67,10.0,WNW,13.8,20.7,N/A,,Mostly Cloudy,290,2013-03-21 14:15:00
10:35 AM,14.0,3.2,62,29.68,10.0,NW,12.7,21.9,N/A,,Mostly Cloudy,310,2013-03-21 14:35:00
11:15 AM,14.0,3.2,62,29.67,10.0,WNW,9.2,20.7,N/A,,Mostly Cloudy,300,2013-03-21 15:15:00
11:35 AM,15.8,5.0,62,29.67,10.0,WNW,13.8,23.0,N/A,,Mostly Cloudy,300,2013-03-21 15:35:00
11:55 AM,15.8,6.8,68,29.66,10.0,WNW,12.7,23.0,N/A,,Mostly Cloudy,300,2013-03-21 15:55:00
12:15 PM,15.8,5.0,62,29.66,10.0,West,16.1,26.5,N/A,,Mostly Cloudy,280,2013-03-21 16:15:00
12:35 PM,17.6,5.0,58,29.66,10.0,WNW,16.1,25.3,N/A,,Overcast,290,2013-03-21 16:35:00
12:55 PM,17.6,6.8,63,29.66,10.0,NW,17.3,24.2,N/A,,Mostly Cloudy,310,2013-03-21 16:55:00
1:15 PM,17.6,5.0,58,29.66,10.0,WNW,18.4,26.5,N/A,,Mostly Cloudy,300,2013-03-21 17:15:00
1:35 PM,19.4,5.0,54,29.66,10.0,West,19.6,26.5,N/A,,Mostly Cloudy,280,2013-03-21 17:35:00
1:55 PM,19.4,5.0,54,29.66,10.0,WNW,12.7,24.2,N/A,,Mostly Cloudy,290,2013-03-21 17:55:00
2:15 PM,17.6,6.8,63,29.66,10.0,West,18.4,26.5,N/A,,Overcast,270,2013-03-21 18:15:00
2:35 PM,19.4,5.0,54,29.65,10.0,West,15.0,23.0,N/A,,Overcast,280,2013-03-21 18:35:00
2:55 PM,19.4,6.8,58,29.65,10.0,West,20.7,28.8,N/A,,Overcast,280,2013-03-21 18:55:00
3:15 PM,19.4,5.0,54,29.64,10.0,WNW,19.6,26.5,N/A,,Overcast,300,2013-03-21 19:15:00
3:35 PM,19.4,3.2,49,29.65,10.0,WNW,5.8,21.9,N/A,,Overcast,300,2013-03-21 19:35:00
3:55 PM,17.6,8.6,68,29.67,10.0,WNW,18.4,27.6,N/A,,Overcast,300,2013-03-21 19:55:00
4:15 PM,19.4,6.8,58,29.67,10.0,WNW,13.8,28.8,N/A,,Overcast,300,2013-03-21 20:15:00
4:35 PM,17.6,5.0,58,29.67,10.0,WNW,19.6,29.9,N/A,,Overcast,300,2013-03-21 20:35:00
4:55 PM,17.6,6.8,63,29.68,10.0,West,20.7,28.8,N/A,,Overcast,280,2013-03-21 20:55:00
5:15 PM,17.6,6.8,63,29.69,10.0,West,19.6,25.3,N/A,,Mostly Cloudy,280,2013-03-21 21:15:00
5:35 PM,17.6,6.8,63,29.69,10.0,West,17.3,29.9,N/A,,Mostly Cloudy,280,2013-03-21 21:35:00
5:55 PM,15.8,6.8,68,29.70,10.0,NW,15.0,25.3,N/A,,Overcast,320,2013-03-21 21:55:00
6:15 PM,17.6,6.8,63,29.70,10.0,WNW,18.4,24.2,N/A,,Mostly Cloudy,290,2013-03-21 22:15:00
6:35 PM,15.8,6.8,68,29.71,10.0,WNW,11.5,27.6,N/A,,Mostly Cloudy,300,2013-03-21 22:35:00
6:55 PM,15.8,6.8,68,29.72,10.0,WNW,19.6,28.8,N/A,,Overcast,290,2013-03-21 22:55:00
7:15 PM,15.8,6.8,68,29.72,10.0,WNW,19.6,28.8,N/A,,Mostly Cloudy,290,2013-03-21 23:15:00
7:35 PM,14.0,8.6,79,29.73,10.0,WNW,13.8,20.7,N/A,,Mostly Cloudy,300,2013-03-21 23:35:00
7:55 PM,14.0,8.6,79,29.75,10.0,WNW,11.5,26.5,N/A,,Scattered Clouds,290,2013-03-21 23:55:00
8:15 PM,14.0,6.8,73,29.75,10.0,WNW,12.7,23.0,N/A,,Mostly Cloudy,290,2013-03-22 00:15:00
8:35 PM,12.2,6.8,79,29.75,10.0,WNW,15.0,21.9,N/A,,Mostly Cloudy,290,2013-03-22 00:35:00
8:55 PM,12.2,6.8,79,29.76,10.0,WNW,16.1,24.2,N/A,,Mostly Cloudy,290,2013-03-22 00:55:00
9:15 PM,12.2,6.8,79,29.76,10.0,WNW,17.3,27.6,N/A,,Mostly Cloudy,290,2013-03-22 01:15:00
9:35 PM,12.2,6.8,79,29.77,10.0,WNW,12.7,26.5,N/A,,Scattered Clouds,300,2013-03-22 01:35:00
9:55 PM,12.2,6.8,79,29.77,10.0,WNW,13.8,24.2,N/A,,Scattered Clouds,300,2013-03-22 01:55:00
10:15 PM,12.2,6.8,79,29.78,10.0,WNW,17.3,23.0,N/A,,Scattered Clouds,290,2013-03-22 02:15:00
10:35 PM,12.2,6.8,79,29.79,10.0,WNW,12.7,20.7,N/A,,Scattered Clouds,300,2013-03-22 02:35:00
10:55 PM,12.2,6.8,79,29.79,10.0,WNW,17.3,26.5,N/A,,Clear,290,2013-03-22 02:55:00
11:15 PM,12.2,6.8,79,29.79,10.0,WNW,16.1,27.6,N/A,,Clear,300,2013-03-22 03:15:00
11:35 PM,12.2,6.8,79,29.79,10.0,WNW,18.4,26.5,N/A,,Clear,290,2013-03-22 03:35:00
11:55 PM,12.2,6.8,79,29.79,10.0,WNW,15.0,26.5,N/A,,Clear,290,2013-03-22 03:55:00